createdAt,value
2023-02-22T00:00:24.340Z,21.11
2023-02-22T00:03:01.621Z,21.02
2023-02-22T00:05:33.080Z,20.75
2023-02-22T00:08:04.178Z,20.72
2023-02-22T00:10:35.376Z,21.22
2023-02-22T00:13:08.802Z,21.32
2023-02-22T00:15:42.932Z,21.66
2023-02-22T00:18:19.992Z,22.24
2023-02-22T00:20:51.060Z,22.42
2023-02-22T00:23:24.078Z,22.74
2023-02-22T00:25:55.440Z,23.23
2023-02-22T00:28:26.911Z,23.69
2023-02-22T00:30:59.047Z,23.44
2023-02-22T00:33:30.279Z,24.15
2023-02-22T00:36:02.124Z,23.74
2023-02-22T00:38:33.615Z,24.03
2023-02-22T00:41:06.094Z,23.93
2023-02-22T00:43:37.417Z,23.79
2023-02-22T00:46:09.042Z,24.09
2023-02-22T00:48:40.225Z,24.72
2023-02-22T00:51:11.566Z,24.65
2023-02-22T00:53:42.841Z,24.97
2023-02-22T00:56:13.968Z,24.71
2023-02-22T00:58:46.124Z,24.63
2023-02-22T01:01:17.550Z,25.00
2023-02-22T01:03:48.279Z,25.07
2023-02-22T01:06:20.207Z,25.27
2023-02-22T01:08:52.014Z,25.79
2023-02-22T01:11:23.877Z,25.87
2023-02-22T01:13:58.072Z,25.79
2023-02-22T01:16:29.260Z,25.62
2023-02-22T01:19:01.649Z,26.53
2023-02-22T01:21:33.070Z,27.10
2023-02-22T01:24:05.212Z,26.27
2023-02-22T01:26:36.531Z,25.94
2023-02-22T01:29:08.686Z,26.51
2023-02-22T01:31:40.180Z,26.41
2023-02-22T01:34:14.404Z,26.26
2023-02-22T01:36:45.517Z,25.64
2023-02-22T01:39:19.343Z,25.62
2023-02-22T01:41:50.314Z,25.39
2023-02-22T01:44:36.849Z,25.00
2023-02-22T01:47:10.370Z,25.64
2023-02-22T01:49:48.636Z,25.34
2023-02-22T01:52:22.883Z,24.70
2023-02-22T01:54:58.135Z,24.55
2023-02-22T01:57:38.687Z,24.96
2023-02-22T02:00:13.787Z,24.33
2023-02-22T02:02:55.775Z,24.00
2023-02-22T02:05:29.132Z,23.70
2023-02-22T02:08:04.932Z,23.85
2023-02-22T02:10:36.484Z,24.18
2023-02-22T02:13:09.354Z,24.09
2023-02-22T02:16:00.138Z,23.76
2023-02-22T02:18:34.086Z,23.87
2023-02-22T02:21:26.197Z,24.05
2023-02-22T02:24:13.738Z,24.07
2023-02-22T02:27:10.651Z,24.07
2023-02-22T02:29:59.591Z,24.06
2023-02-22T02:32:38.276Z,23.71
2023-02-22T02:35:35.054Z,23.77
2023-02-22T02:38:24.702Z,23.53
2023-02-22T02:41:12.602Z,23.83
2023-02-22T02:43:43.920Z,23.96
2023-02-22T02:46:20.423Z,23.91
2023-02-22T02:48:59.877Z,23.86
2023-02-22T02:51:34.665Z,24.05
2023-02-22T02:54:07.029Z,23.78
2023-02-22T02:59:29.430Z,24.20
2023-02-22T03:05:09.278Z,24.45
2023-02-22T03:07:44.411Z,24.71
2023-02-22T03:10:27.514Z,25.06
2023-02-22T03:13:29.406Z,24.48
2023-02-22T03:16:04.209Z,24.86
2023-02-22T03:18:45.291Z,24.59
2023-02-22T03:21:37.966Z,24.55
2023-02-22T03:24:24.479Z,24.95
2023-02-22T03:27:19.474Z,25.02
2023-02-22T03:29:54.079Z,24.85
2023-02-22T03:32:30.144Z,24.61
2023-02-22T03:35:16.525Z,24.47
2023-02-22T03:37:50.729Z,24.40
2023-02-22T03:40:31.000Z,24.51
2023-02-22T03:43:23.949Z,24.36
2023-02-22T03:45:57.568Z,24.49
2023-02-22T03:48:28.173Z,24.54
2023-02-22T03:50:59.953Z,24.82
2023-02-22T03:53:31.946Z,24.58
2023-02-22T03:56:04.523Z,24.28
2023-02-22T03:58:37.277Z,24.72
2023-02-22T04:01:08.801Z,24.60
2023-02-22T04:03:41.606Z,24.42
2023-02-22T04:06:13.132Z,24.33
2023-02-22T04:08:45.528Z,24.01
2023-02-22T04:11:17.209Z,24.03
2023-02-22T04:13:48.913Z,23.98
2023-02-22T04:16:20.133Z,24.09
2023-02-22T04:18:51.146Z,23.95
2023-02-22T04:21:23.339Z,23.99
2023-02-22T04:23:54.942Z,23.97
2023-02-22T04:26:26.101Z,23.74
2023-02-22T04:28:59.881Z,23.34
2023-02-22T04:31:38.018Z,23.75
2023-02-22T04:34:08.934Z,23.59
2023-02-22T04:36:45.755Z,23.40
2023-02-22T04:39:18.331Z,23.14
2023-02-22T04:41:58.092Z,23.35
2023-02-22T04:44:29.836Z,23.13
2023-02-22T04:47:00.989Z,23.37
2023-02-22T04:49:32.103Z,23.27
2023-02-22T04:52:03.289Z,23.49
2023-02-22T04:54:38.565Z,23.65
2023-02-22T04:57:10.217Z,24.11
2023-02-22T04:59:42.121Z,24.30
2023-02-22T05:02:15.418Z,23.97
2023-02-22T05:04:46.749Z,23.63
2023-02-22T05:07:18.016Z,24.92
2023-02-22T05:09:49.145Z,24.69
2023-02-22T05:12:20.422Z,24.79
2023-02-22T05:14:51.241Z,23.98
2023-02-22T05:17:22.310Z,24.51
2023-02-22T05:19:53.639Z,24.60
2023-02-22T05:22:24.603Z,24.71
2023-02-22T05:24:55.923Z,24.96
2023-02-22T05:27:26.983Z,25.19
2023-02-22T05:29:58.365Z,25.26
2023-02-22T05:32:29.506Z,24.67
2023-02-22T05:35:00.179Z,24.97
2023-02-22T05:37:31.041Z,25.21
2023-02-22T05:40:02.211Z,24.61
2023-02-22T05:42:33.588Z,24.58
2023-02-22T05:45:05.894Z,24.63
2023-02-22T05:47:36.864Z,24.59
2023-02-22T05:50:11.868Z,24.19
2023-02-22T05:52:44.636Z,24.37
2023-02-22T05:55:17.475Z,24.25
2023-02-22T05:57:49.353Z,23.53
2023-02-22T06:00:26.441Z,23.54
2023-02-22T06:03:05.108Z,23.37
2023-02-22T06:05:36.682Z,23.07
2023-02-22T06:08:09.270Z,23.16
2023-02-22T06:10:40.134Z,22.55
2023-02-22T06:13:11.578Z,22.71
2023-02-22T06:15:42.684Z,22.66
2023-02-22T06:18:14.146Z,22.61
2023-02-22T06:20:48.215Z,22.63
2023-02-22T06:23:19.181Z,22.67
2023-02-22T06:25:50.916Z,22.85
2023-02-22T06:28:22.219Z,22.68
2023-02-22T06:30:53.258Z,22.28
2023-02-22T06:33:24.529Z,22.17
2023-02-22T06:35:55.812Z,21.99
2023-02-22T06:38:29.226Z,22.31
2023-02-22T06:41:00.214Z,22.07
2023-02-22T06:43:31.392Z,21.73
2023-02-22T06:46:03.475Z,21.82
2023-02-22T06:48:34.801Z,21.70
2023-02-22T06:51:06.230Z,21.44
2023-02-22T06:53:37.519Z,21.64
2023-02-22T06:56:09.117Z,21.70
2023-02-22T06:58:40.195Z,21.43
2023-02-22T07:01:12.260Z,21.40
2023-02-22T07:03:43.934Z,21.24
2023-02-22T07:06:15.446Z,21.36
2023-02-22T07:08:46.534Z,21.16
2023-02-22T07:11:18.905Z,21.15
2023-02-22T07:13:50.040Z,21.16
2023-02-22T07:16:21.403Z,21.22
2023-02-22T07:18:52.056Z,21.25
2023-02-22T07:21:23.053Z,21.04
2023-02-22T07:23:58.653Z,21.08
2023-02-22T07:26:30.553Z,20.94
2023-02-22T07:29:01.780Z,20.82
2023-02-22T07:31:42.513Z,20.85
2023-02-22T07:34:22.252Z,20.96
2023-02-22T07:36:53.137Z,20.88
2023-02-22T07:39:24.471Z,20.60
2023-02-22T07:41:55.718Z,20.81
2023-02-22T07:44:29.421Z,20.89
2023-02-22T07:47:14.119Z,21.00
2023-02-22T07:49:45.339Z,20.99
2023-02-22T07:52:16.625Z,21.23
2023-02-22T07:54:49.263Z,21.04
2023-02-22T07:57:20.180Z,21.12
2023-02-22T07:59:51.213Z,21.20
2023-02-22T08:02:22.611Z,21.14
2023-02-22T08:04:53.329Z,21.01
2023-02-22T08:07:24.448Z,21.08
2023-02-22T08:09:55.769Z,21.11
2023-02-22T08:12:26.930Z,20.93
2023-02-22T08:14:58.294Z,20.82
2023-02-22T08:17:29.449Z,21.00
2023-02-22T08:20:00.888Z,21.06
2023-02-22T08:22:32.804Z,21.11
2023-02-22T08:25:04.050Z,20.99
2023-02-22T08:27:35.384Z,20.78
2023-02-22T08:30:07.151Z,20.88
2023-02-22T08:32:38.344Z,21.01
2023-02-22T08:35:09.988Z,20.81
2023-02-22T08:37:45.733Z,20.75
2023-02-22T08:40:18.761Z,20.83
2023-02-22T08:42:49.825Z,20.96
2023-02-22T08:45:21.269Z,20.78
2023-02-22T08:47:53.380Z,20.70
2023-02-22T08:50:26.961Z,20.69
2023-02-22T08:53:00.695Z,20.64
2023-02-22T08:55:37.326Z,20.86
2023-02-22T08:58:13.475Z,20.80
2023-02-22T09:00:46.196Z,20.80
2023-02-22T09:03:17.691Z,21.02
2023-02-22T09:05:49.142Z,21.08
2023-02-22T09:08:20.478Z,20.99
2023-02-22T09:10:52.621Z,20.88
2023-02-22T09:13:23.800Z,20.85
2023-02-22T09:15:54.703Z,20.97
2023-02-22T09:18:30.572Z,20.89
2023-02-22T09:21:07.782Z,20.73
2023-02-22T09:23:38.798Z,20.80
2023-02-22T09:26:12.956Z,20.78
2023-02-22T09:28:43.877Z,20.76
2023-02-22T09:31:15.146Z,20.55
2023-02-22T09:33:47.485Z,20.72
2023-02-22T09:36:19.107Z,20.85
2023-02-22T09:38:50.260Z,20.64
2023-02-22T09:41:36.280Z,20.71
2023-02-22T09:44:31.431Z,20.61
2023-02-22T09:47:02.867Z,20.55
2023-02-22T09:49:40.535Z,20.72
2023-02-22T09:52:20.969Z,20.58
2023-02-22T09:55:15.094Z,20.45
2023-02-22T09:57:47.659Z,20.75
2023-02-22T10:00:25.365Z,20.61
2023-02-22T10:03:46.870Z,20.50
2023-02-22T10:06:22.669Z,20.66
2023-02-22T10:08:59.703Z,20.58
2023-02-22T10:12:06.020Z,20.63
2023-02-22T10:15:04.243Z,20.56
2023-02-22T10:17:57.725Z,20.59
2023-02-22T10:20:56.234Z,20.69
2023-02-22T10:24:08.903Z,20.62
2023-02-22T10:26:44.316Z,20.50
2023-02-22T10:29:34.061Z,20.61
2023-02-22T10:32:06.720Z,20.50
2023-02-22T10:34:50.865Z,20.38
2023-02-22T10:37:33.743Z,20.53
2023-02-22T10:40:33.413Z,20.57
2023-02-22T10:43:10.580Z,20.43
2023-02-22T10:45:41.561Z,20.29
2023-02-22T10:48:19.918Z,20.38
2023-02-22T10:50:52.060Z,20.32
2023-02-22T10:53:22.250Z,20.32
2023-02-22T10:56:11.483Z,20.14
2023-02-22T10:58:57.258Z,20.13
2023-02-22T11:01:34.175Z,20.33
2023-02-22T11:04:20.509Z,20.32
2023-02-22T11:07:01.736Z,20.18
2023-02-22T11:09:32.850Z,20.25
2023-02-22T11:12:13.237Z,20.29
2023-02-22T11:14:44.490Z,20.26
2023-02-22T11:17:20.601Z,20.08
2023-02-22T11:19:52.798Z,20.05
2023-02-22T11:22:25.812Z,19.95
2023-02-22T11:25:02.786Z,19.99
2023-02-22T11:27:41.450Z,19.93
2023-02-22T11:30:34.228Z,19.78
2023-02-22T11:33:34.357Z,19.94
2023-02-22T11:36:10.172Z,19.94
2023-02-22T11:38:42.321Z,19.68
2023-02-22T11:41:24.309Z,19.58
2023-02-22T11:43:55.803Z,19.60
2023-02-22T11:46:30.819Z,19.68
2023-02-22T11:49:06.715Z,19.72
2023-02-22T11:51:56.758Z,19.81
2023-02-22T11:54:39.925Z,19.60
2023-02-22T11:57:23.519Z,19.52
2023-02-22T12:00:00.782Z,19.62
2023-02-22T12:02:51.802Z,19.66
2023-02-22T12:06:00.764Z,19.42
2023-02-22T12:08:55.317Z,19.41
2023-02-22T12:11:34.723Z,19.07
2023-02-22T12:14:24.519Z,19.14
2023-02-22T12:16:56.431Z,19.24
2023-02-22T12:19:30.643Z,19.05
2023-02-22T12:22:20.089Z,19.05
2023-02-22T12:25:09.846Z,19.26
2023-02-22T12:28:00.480Z,18.98
2023-02-22T12:30:40.017Z,19.04
2023-02-22T12:33:17.771Z,18.95
2023-02-22T12:35:57.289Z,18.97
2023-02-22T12:38:38.829Z,18.99
2023-02-22T12:41:12.860Z,19.17
2023-02-22T12:43:48.755Z,19.35
2023-02-22T12:46:41.228Z,19.35
2023-02-22T12:49:48.751Z,19.39
2023-02-22T12:53:08.136Z,19.46
2023-02-22T12:55:55.126Z,19.16
2023-02-22T12:58:38.403Z,19.09
2023-02-22T13:01:22.822Z,19.22
2023-02-22T13:03:57.380Z,19.28
2023-02-22T13:06:28.918Z,19.37
2023-02-22T13:09:25.922Z,19.45
2023-02-22T13:12:19.839Z,19.34
2023-02-22T13:15:18.593Z,19.43
2023-02-22T13:18:02.034Z,19.33
2023-02-22T13:20:36.994Z,19.43
2023-02-22T13:23:11.735Z,19.21
2023-02-22T13:25:59.050Z,19.26
2023-02-22T13:28:42.403Z,19.18
2023-02-22T13:31:25.187Z,19.28
2023-02-22T13:34:20.652Z,19.32
2023-02-22T13:37:00.564Z,19.48
2023-02-22T13:40:09.373Z,19.35
2023-02-22T13:42:58.358Z,19.38
2023-02-22T13:45:47.468Z,19.49
2023-02-22T13:48:46.231Z,19.26
2023-02-22T13:51:38.858Z,19.05
2023-02-22T13:54:15.063Z,18.97
2023-02-22T13:56:51.400Z,18.97
2023-02-22T13:59:25.522Z,19.04
2023-02-22T14:01:57.907Z,18.93
2023-02-22T14:04:32.238Z,18.97
2023-02-22T14:07:22.797Z,18.88
2023-02-22T14:09:57.431Z,18.87
2023-02-22T14:12:31.662Z,18.89
2023-02-22T14:15:32.703Z,18.68
2023-02-22T14:18:19.156Z,18.80
2023-02-22T14:21:10.741Z,18.79
2023-02-22T14:23:46.023Z,18.72
2023-02-22T14:26:22.545Z,18.73
2023-02-22T14:28:55.953Z,18.64
2023-02-22T14:31:36.426Z,18.63
2023-02-22T14:34:18.816Z,18.65
2023-02-22T14:37:11.484Z,18.64
2023-02-22T14:39:54.871Z,18.44
2023-02-22T14:42:36.486Z,18.37
2023-02-22T14:45:18.547Z,18.26
2023-02-22T14:48:02.564Z,18.30
2023-02-22T14:50:42.760Z,18.25
2023-02-22T14:53:49.833Z,18.27
2023-02-22T14:56:57.150Z,18.35
2023-02-22T14:59:29.623Z,18.23
2023-02-22T15:02:11.819Z,18.17
2023-02-22T15:04:46.118Z,18.28
2023-02-22T15:07:30.913Z,18.26
2023-02-22T15:10:27.358Z,18.27
2023-02-22T15:13:12.377Z,18.24
2023-02-22T15:15:49.214Z,18.15
2023-02-22T15:18:50.041Z,18.18
2023-02-22T15:21:27.336Z,18.14
2023-02-22T15:24:04.985Z,18.10
2023-02-22T15:26:37.649Z,18.02
2023-02-22T15:29:33.046Z,18.08
2023-02-22T15:32:04.047Z,18.32
2023-02-22T15:34:35.516Z,18.46
2023-02-22T15:37:27.026Z,18.54
2023-02-22T15:40:34.404Z,18.48
2023-02-22T15:43:12.639Z,18.37
2023-02-22T15:45:44.201Z,18.28
2023-02-22T15:48:17.260Z,18.35
2023-02-22T15:51:15.662Z,18.39
2023-02-22T15:53:49.323Z,18.30
2023-02-22T15:56:31.358Z,18.50
2023-02-22T15:59:24.004Z,18.46
2023-02-22T16:01:55.786Z,18.35
2023-02-22T16:04:29.923Z,18.47
2023-02-22T16:07:18.155Z,18.31
2023-02-22T16:09:51.250Z,18.52
2023-02-22T16:12:30.295Z,18.59
2023-02-22T16:15:01.554Z,18.54
2023-02-22T16:17:56.041Z,18.35
2023-02-22T16:20:34.060Z,18.35
2023-02-22T16:23:25.742Z,18.44
2023-02-22T16:26:21.009Z,18.53
2023-02-22T16:28:54.753Z,18.63
2023-02-22T16:31:31.737Z,18.66
2023-02-22T16:34:04.077Z,18.63
2023-02-22T16:36:46.905Z,18.55
2023-02-22T16:39:36.219Z,18.43
2023-02-22T16:42:11.153Z,18.47
2023-02-22T16:44:42.255Z,18.56
2023-02-22T16:47:14.754Z,18.46
2023-02-22T16:49:46.462Z,18.39
2023-02-22T16:52:17.637Z,18.37
2023-02-22T16:54:49.359Z,18.41
2023-02-22T16:57:24.712Z,18.64
2023-02-22T16:59:56.996Z,18.54
2023-02-22T17:02:29.228Z,18.51
2023-02-22T17:05:00.554Z,18.55
2023-02-22T17:07:33.334Z,18.56
2023-02-22T17:10:04.587Z,18.40
2023-02-22T17:12:35.699Z,18.39
2023-02-22T17:15:08.791Z,18.39
2023-02-22T17:17:40.070Z,18.43
2023-02-22T17:20:14.924Z,18.43
2023-02-22T17:22:46.212Z,18.46
2023-02-22T17:25:27.027Z,18.49
2023-02-22T17:27:58.463Z,18.46
2023-02-22T17:30:29.847Z,18.53
2023-02-22T17:33:05.869Z,18.42
2023-02-22T17:35:40.308Z,18.31
2023-02-22T17:38:11.399Z,18.38
2023-02-22T17:40:42.994Z,18.41
2023-02-22T17:43:14.171Z,18.39
2023-02-22T17:45:45.509Z,18.32
2023-02-22T17:48:18.257Z,18.20
2023-02-22T17:50:51.015Z,18.29
2023-02-22T17:53:25.858Z,18.37
2023-02-22T17:55:57.355Z,18.24
2023-02-22T17:58:32.325Z,18.18
2023-02-22T18:01:04.766Z,18.18
2023-02-22T18:03:36.304Z,18.19
2023-02-22T18:06:07.441Z,18.26
2023-02-22T18:08:40.508Z,18.31
2023-02-22T18:11:11.821Z,18.33
2023-02-22T18:13:42.790Z,18.19
2023-02-22T18:16:13.747Z,18.16
2023-02-22T18:18:45.310Z,18.23
2023-02-22T18:21:17.708Z,18.23
2023-02-22T18:23:48.995Z,18.14
2023-02-22T18:26:22.549Z,18.25
2023-02-22T18:28:55.219Z,18.38
2023-02-22T18:31:26.401Z,18.51
2023-02-22T18:33:59.010Z,18.77
2023-02-22T18:36:30.000Z,18.83
2023-02-22T18:39:01.086Z,18.65
2023-02-22T18:41:32.442Z,18.76
2023-02-22T18:44:04.764Z,18.77
2023-02-22T18:46:36.023Z,18.81
2023-02-22T18:49:07.413Z,18.89
2023-02-22T18:51:38.566Z,19.06
2023-02-22T18:54:09.767Z,19.31
2023-02-22T18:56:41.720Z,19.20
2023-02-22T18:59:14.738Z,19.17
2023-02-22T19:01:50.469Z,19.21
2023-02-22T19:04:23.083Z,19.69
2023-02-22T19:06:56.890Z,19.54
2023-02-22T19:09:28.941Z,19.48
2023-02-22T19:12:00.440Z,19.61
2023-02-22T19:14:31.829Z,19.61
2023-02-22T19:17:04.336Z,19.90
2023-02-22T19:19:36.552Z,19.45
2023-02-22T19:22:07.740Z,19.76
2023-02-22T19:24:41.089Z,19.94
2023-02-22T19:27:13.052Z,19.93
2023-02-22T19:29:44.118Z,19.65
2023-02-22T19:32:15.338Z,19.72
2023-02-22T19:34:46.619Z,20.14
2023-02-22T19:37:20.165Z,20.46
2023-02-22T19:39:51.315Z,20.29
2023-02-22T19:42:22.651Z,20.71
2023-02-22T19:44:54.835Z,20.93
2023-02-22T19:47:27.865Z,20.84
2023-02-22T19:50:00.115Z,20.87
2023-02-22T19:52:34.022Z,21.25
2023-02-22T19:55:05.887Z,21.35
2023-02-22T19:57:37.360Z,20.82
2023-02-22T20:00:12.768Z,21.53
2023-02-22T20:02:45.084Z,21.72
2023-02-22T20:05:17.881Z,21.56
2023-02-22T20:07:49.461Z,21.31
2023-02-22T20:10:20.729Z,21.58
2023-02-22T20:12:51.862Z,21.58
2023-02-22T20:15:25.350Z,21.41
2023-02-22T20:17:57.036Z,21.57
2023-02-22T20:20:30.572Z,21.71
2023-02-22T20:23:02.001Z,21.81
2023-02-22T20:25:33.178Z,22.24
2023-02-22T20:28:05.205Z,22.18
2023-02-22T20:30:39.663Z,21.65
2023-02-22T20:33:11.596Z,21.95
2023-02-22T20:35:42.776Z,22.61
2023-02-22T20:38:15.325Z,23.16
2023-02-22T20:40:48.195Z,23.23
2023-02-22T20:43:19.185Z,22.91
2023-02-22T20:45:50.549Z,23.17
2023-02-22T20:48:21.703Z,24.14
2023-02-22T20:50:53.182Z,24.12
2023-02-22T20:53:24.404Z,24.54
2023-02-22T20:55:57.150Z,24.15
2023-02-22T20:58:28.541Z,24.28
2023-02-22T21:01:06.777Z,24.28
2023-02-22T21:03:38.867Z,23.75
2023-02-22T21:06:13.234Z,23.78
2023-02-22T21:08:45.354Z,24.00
2023-02-22T21:11:17.999Z,23.87
2023-02-22T21:13:49.491Z,23.35
2023-02-22T21:16:23.880Z,23.18
2023-02-22T21:18:56.231Z,23.65
2023-02-22T21:21:27.992Z,23.25
2023-02-22T21:24:03.098Z,23.37
2023-02-22T21:26:35.848Z,23.68
2023-02-22T21:29:08.423Z,24.16
2023-02-22T21:31:39.563Z,24.45
2023-02-22T21:34:13.472Z,24.08
2023-02-22T21:36:44.493Z,23.46
2023-02-22T21:39:19.652Z,23.83
2023-02-22T21:41:53.230Z,23.52
2023-02-22T21:44:24.274Z,24.00
2023-02-22T21:46:55.302Z,24.16
2023-02-22T21:49:26.639Z,23.86
2023-02-22T21:51:57.934Z,24.06
2023-02-22T21:54:29.391Z,24.19
2023-02-22T21:57:01.319Z,24.14
2023-02-22T21:59:31.908Z,24.08
2023-02-22T22:02:03.117Z,24.02
2023-02-22T22:04:36.420Z,24.19
2023-02-22T22:07:07.536Z,24.27
2023-02-22T22:09:42.612Z,24.29
2023-02-22T22:12:13.722Z,23.87
2023-02-22T22:14:44.895Z,23.52
2023-02-22T22:17:16.132Z,23.99
2023-02-22T22:19:50.227Z,23.83
2023-02-22T22:22:21.858Z,23.88
2023-02-22T22:24:55.313Z,23.81
2023-02-22T22:27:26.668Z,23.67
2023-02-22T22:29:58.836Z,23.62
2023-02-22T22:32:33.664Z,23.65
2023-02-22T22:35:08.472Z,23.40
2023-02-22T22:37:40.790Z,23.54
2023-02-22T22:40:17.155Z,23.26
2023-02-22T22:42:48.760Z,22.42
2023-02-22T22:45:19.601Z,22.51
2023-02-22T22:47:50.572Z,22.60
2023-02-22T22:50:27.769Z,22.52
2023-02-22T22:52:59.598Z,22.78
2023-02-22T22:55:30.711Z,22.68
2023-02-22T22:58:01.888Z,22.60
2023-02-22T23:00:42.844Z,22.59
2023-02-22T23:03:19.362Z,22.70
2023-02-22T23:05:51.540Z,22.39
2023-02-22T23:08:30.676Z,22.10
2023-02-22T23:11:01.866Z,22.21
2023-02-22T23:13:32.947Z,22.29
2023-02-22T23:16:03.880Z,22.40
2023-02-22T23:18:35.805Z,22.49
2023-02-22T23:21:07.689Z,22.36
2023-02-22T23:23:39.636Z,22.52
2023-02-22T23:26:19.659Z,22.49
2023-02-22T23:28:51.073Z,22.43
2023-02-22T23:31:22.322Z,22.50
2023-02-22T23:33:54.108Z,22.79
2023-02-22T23:36:25.438Z,22.63
2023-02-22T23:38:57.311Z,22.79
2023-02-22T23:41:30.152Z,23.12
2023-02-22T23:44:01.497Z,22.70
2023-02-22T23:46:34.333Z,23.19
2023-02-22T23:49:06.984Z,23.16
2023-02-22T23:51:43.472Z,22.89
2023-02-22T23:54:16.547Z,22.71
2023-02-22T23:57:00.150Z,22.94
2023-02-22T23:59:32.322Z,22.70
